Time;durP1;ratioP1;P1;durP2;ratioP2;P2;SDS_P1;SDS_P2;PMS_P1;PMS_P2;Temp;Humidity;BMP_temperature;BMP_pressure;BME280_temperature;BME280_humidity;BME280_pressure;Samples;Min_cycle;Max_cycle;Signal;HPM_P1;HPM_P2
2020/12/04 00:01:39;;;;;;;25.93;19.17;;;3.10;99.90;;;;;;5157877;27;20444;-26
2020/12/04 00:04:08;;;;;;;25.67;19.00;;;3.20;99.90;;;;;;5139920;27;20455;-27
2020/12/04 00:06:36;;;;;;;23.83;18.07;;;3.20;99.90;;;;;;5151088;27;20475;-28
2020/12/04 00:09:10;;;;;;;23.97;17.10;;;3.30;99.90;;;;;;5137381;27;20442;-28
2020/12/04 00:11:37;;;;;;;22.33;16.23;;;3.30;99.90;;;;;;5137998;27;20449;-27
2020/12/04 00:14:05;;;;;;;21.03;15.60;;;3.30;99.90;;;;;;5138114;27;20866;-29
2020/12/04 00:16:32;;;;;;;23.40;16.67;;;3.30;99.90;;;;;;5137664;27;20532;-28
2020/12/04 00:19:00;;;;;;;20.83;15.23;;;3.40;99.90;;;;;;5137592;27;20477;-28
2020/12/04 00:21:27;;;;;;;18.30;14.90;;;3.40;99.90;;;;;;5137294;27;20434;-28
2020/12/04 00:23:57;;;;;;;21.90;15.70;;;3.50;99.90;;;;;;5137879;27;20442;-28
2020/12/04 00:26:24;;;;;;;19.43;14.63;;;3.50;99.90;;;;;;5137168;27;20462;-27
2020/12/04 00:28:51;;;;;;;21.60;15.80;;;3.50;99.90;;;;;;5141911;27;20429;-28
2020/12/04 00:31:20;;;;;;;18.60;14.00;;;3.40;99.90;;;;;;5158660;27;20501;-27
2020/12/04 00:33:47;;;;;;;19.00;14.50;;;3.40;99.90;;;;;;5158302;27;20484;-28
2020/12/04 00:36:16;;;;;;;18.63;14.30;;;3.40;99.90;;;;;;5153809;27;20911;-27
2020/12/04 00:38:43;;;;;;;22.67;17.30;;;3.40;99.90;;;;;;5136601;27;20457;-27
2020/12/04 00:41:10;;;;;;;19.50;16.13;;;3.50;99.90;;;;;;5119364;27;20544;-27
2020/12/04 00:43:38;;;;;;;22.73;16.37;;;3.50;99.90;;;;;;5137162;27;20438;-27
2020/12/04 00:46:05;;;;;;;21.20;16.50;;;3.50;99.90;;;;;;5136850;27;20463;-28
2020/12/04 00:48:36;;;;;;;24.23;16.30;;;3.50;99.90;;;;;;5136359;27;20430;-28
2020/12/04 00:51:03;;;;;;;20.67;16.07;;;3.50;99.90;;;;;;5119457;27;20791;-28
2020/12/04 00:53:31;;;;;;;20.00;15.17;;;3.50;99.90;;;;;;5119558;27;20634;-30
2020/12/04 00:55:59;;;;;;;20.27;15.97;;;3.50;99.90;;;;;;5136892;27;20441;-28
2020/12/04 00:58:26;;;;;;;19.20;15.80;;;3.50;99.90;;;;;;5118919;27;20485;-28
2020/12/04 01:00:57;;;;;;;18.30;15.90;;;3.40;99.90;;;;;;5136596;27;20430;-28
2020/12/04 01:03:24;;;;;;;22.87;16.17;;;3.30;99.90;;;;;;5154903;27;20516;-29
2020/12/04 01:05:53;;;;;;;22.00;16.23;;;3.30;99.90;;;;;;5148711;27;20450;-27
2020/12/04 01:08:24;;;;;;;29.60;15.97;;;3.30;99.90;;;;;;5135537;27;21007;-27
2020/12/04 01:10:52;;;;;;;22.40;17.10;;;3.30;99.90;;;;;;5117391;27;20803;-27
2020/12/04 01:13:19;;;;;;;23.20;16.60;;;3.40;99.90;;;;;;5135333;27;20791;-28
2020/12/04 01:15:47;;;;;;;22.20;16.03;;;3.50;99.90;;;;;;5118738;27;20470;-27
2020/12/04 01:18:13;;;;;;;24.50;17.13;;;3.50;99.90;;;;;;5136905;27;20473;-28
2020/12/04 01:20:42;;;;;;;25.40;17.20;;;3.40;99.90;;;;;;5136699;27;20438;-28
2020/12/04 01:23:10;;;;;;;19.87;15.83;;;3.20;99.90;;;;;;5117974;27;21033;-28
2020/12/04 01:25:41;;;;;;;21.80;16.37;;;3.00;99.90;;;;;;5136707;27;20437;-28
2020/12/04 01:28:09;;;;;;;18.50;16.40;;;2.90;99.90;;;;;;5133249;27;20497;-27
2020/12/04 01:30:38;;;;;;;19.40;15.63;;;2.90;99.90;;;;;;5136773;27;20448;-28
2020/12/04 01:33:06;;;;;;;22.47;16.00;;;3.00;99.90;;;;;;5136755;27;20521;-27
2020/12/04 01:35:34;;;;;;;21.37;16.07;;;3.00;99.90;;;;;;5136673;27;20742;-28
2020/12/04 01:38:01;;;;;;;19.63;14.10;;;3.00;99.90;;;;;;5135954;27;20500;-28
2020/12/04 01:40:31;;;;;;;20.40;16.90;;;3.00;99.90;;;;;;5136602;27;20495;-28
2020/12/04 01:42:57;;;;;;;19.67;15.93;;;2.90;99.90;;;;;;5136186;27;20472;-27
2020/12/04 01:45:25;;;;;;;21.17;16.30;;;3.00;99.90;;;;;;5136168;27;21098;-28
2020/12/04 01:47:52;;;;;;;21.60;15.47;;;3.00;99.90;;;;;;5136595;27;20448;-27
2020/12/04 01:50:20;;;;;;;20.67;15.70;;;3.00;99.90;;;;;;5136296;27;20469;-27
2020/12/04 01:52:49;;;;;;;18.20;14.93;;;3.10;99.90;;;;;;5136751;27;20769;-27
2020/12/04 01:55:18;;;;;;;20.20;15.97;;;3.20;99.90;;;;;;5135650;27;20519;-27
2020/12/04 01:57:47;;;;;;;19.33;15.97;;;3.20;99.90;;;;;;5135115;27;20446;-28
2020/12/04 02:00:17;;;;;;;20.43;15.60;;;3.20;99.90;;;;;;5135937;27;20434;-27
2020/12/04 02:02:44;;;;;;;17.93;15.37;;;3.20;99.90;;;;;;5136914;27;20434;-27
2020/12/04 02:05:11;;;;;;;19.60;15.43;;;3.20;99.90;;;;;;5135633;27;20453;-26
2020/12/04 02:07:45;;;;;;;16.50;14.80;;;3.30;99.90;;;;;;5135748;27;20449;-28
2020/12/04 02:10:18;;;;;;;20.10;14.93;;;3.30;99.90;;;;;;5136301;27;20437;-30
2020/12/04 02:12:50;;;;;;;17.63;14.47;;;3.30;99.90;;;;;;5136607;27;20499;-27
2020/12/04 02:15:17;;;;;;;18.47;14.83;;;3.30;99.90;;;;;;5152160;27;20492;-28
2020/12/04 02:17:45;;;;;;;24.37;16.70;;;3.40;99.90;;;;;;5156269;27;20953;-28
2020/12/04 02:20:13;;;;;;;18.43;14.60;;;3.50;99.90;;;;;;5157059;27;20531;-27
2020/12/04 02:22:41;;;;;;;19.20;15.50;;;3.40;99.90;;;;;;5155697;27;21078;-28
2020/12/04 02:25:10;;;;;;;19.67;15.80;;;3.40;99.90;;;;;;5155719;27;20533;-27
2020/12/04 02:27:45;;;;;;;21.10;15.97;;;3.50;99.90;;;;;;5156955;27;20437;-28
2020/12/04 02:30:21;;;;;;;21.40;15.80;;;3.50;99.90;;;;;;5138951;27;20508;-28
2020/12/04 02:32:49;;;;;;;23.73;16.57;;;3.50;99.90;;;;;;5130390;27;20464;-30
2020/12/04 02:35:17;;;;;;;20.80;15.50;;;3.40;99.90;;;;;;5134874;27;20438;-29
2020/12/04 02:37:47;;;;;;;17.80;14.20;;;3.50;99.90;;;;;;5135473;27;20846;-29
2020/12/04 02:40:15;;;;;;;18.03;14.87;;;3.50;99.90;;;;;;5134988;27;20554;-28
2020/12/04 02:42:42;;;;;;;17.40;14.83;;;3.50;99.90;;;;;;5135146;27;20832;-28
2020/12/04 02:45:08;;;;;;;19.60;15.77;;;3.50;99.90;;;;;;5134980;27;20825;-27
2020/12/04 02:47:35;;;;;;;23.47;17.07;;;3.60;99.90;;;;;;5134964;27;20917;-27
2020/12/04 02:50:04;;;;;;;19.57;14.80;;;3.50;99.90;;;;;;5135365;27;20522;-27
2020/12/04 02:52:34;;;;;;;17.73;14.60;;;3.60;99.90;;;;;;5135612;27;20429;-27
2020/12/04 02:55:04;;;;;;;18.83;15.90;;;3.60;99.90;;;;;;5149283;27;20493;-27
2020/12/04 02:57:30;;;;;;;22.67;16.93;;;3.50;99.90;;;;;;5155792;27;20437;-27
2020/12/04 02:59:58;;;;;;;23.07;17.00;;;3.50;99.90;;;;;;5155864;27;20777;-28
2020/12/04 03:02:26;;;;;;;21.83;17.13;;;3.50;99.90;;;;;;5156710;27;20437;-27
2020/12/04 03:04:54;;;;;;;18.40;16.00;;;3.60;99.90;;;;;;5155381;27;20505;-28
2020/12/04 03:07:21;;;;;;;18.27;15.23;;;3.60;99.90;;;;;;5154652;27;20437;-28
2020/12/04 03:09:48;;;;;;;22.37;16.40;;;3.50;99.90;;;;;;5138228;27;20538;-28
2020/12/04 03:12:17;;;;;;;22.97;16.43;;;3.50;99.90;;;;;;5134812;27;20442;-27
2020/12/04 03:14:44;;;;;;;22.67;18.47;;;3.50;99.90;;;;;;5134610;27;20438;-28
2020/12/04 03:17:12;;;;;;;19.27;15.50;;;3.50;99.90;;;;;;5134133;28;20506;-28
2020/12/04 03:19:38;;;;;;;21.53;16.33;;;3.40;99.90;;;;;;5134856;27;20557;-28
2020/12/04 03:22:06;;;;;;;16.43;14.53;;;3.40;99.90;;;;;;5134803;27;20924;-28
2020/12/04 03:24:33;;;;;;;20.80;15.70;;;3.40;99.90;;;;;;5134497;28;20430;-28
2020/12/04 03:27:01;;;;;;;18.77;14.90;;;3.40;99.90;;;;;;5135086;28;20509;-28
2020/12/04 03:29:29;;;;;;;21.77;17.50;;;3.40;99.90;;;;;;5143749;27;20969;-28
2020/12/04 03:31:56;;;;;;;20.07;15.67;;;3.40;99.90;;;;;;5155235;27;20521;-27
2020/12/04 03:34:24;;;;;;;18.10;14.30;;;3.40;99.90;;;;;;5154387;27;20448;-27
2020/12/04 03:36:54;;;;;;;22.83;15.30;;;3.40;99.90;;;;;;5158737;27;20701;-26
2020/12/04 03:39:23;;;;;;;16.27;14.00;;;3.50;99.90;;;;;;5159815;27;20748;-27
2020/12/04 03:41:50;;;;;;;19.43;14.70;;;3.50;99.90;;;;;;5156294;27;20495;-28
2020/12/04 03:44:20;;;;;;;20.17;14.20;;;3.50;99.90;;;;;;5158629;27;20833;-27
2020/12/04 03:46:48;;;;;;;16.60;13.70;;;3.30;99.90;;;;;;5159107;27;20425;-27
2020/12/04 03:49:17;;;;;;;16.90;14.10;;;3.30;99.90;;;;;;5158721;27;20433;-28
2020/12/04 03:51:45;;;;;;;17.10;14.50;;;3.40;99.90;;;;;;5158830;27;20456;-28
2020/12/04 03:54:13;;;;;;;16.60;13.70;;;3.40;99.90;;;;;;5157984;27;20444;-29
2020/12/04 03:56:39;;;;;;;20.60;14.90;;;3.40;99.90;;;;;;5156992;27;20555;-27
2020/12/04 03:59:07;;;;;;;19.40;15.53;;;3.50;99.90;;;;;;5139553;27;20568;-27
2020/12/04 04:01:34;;;;;;;20.50;15.13;;;3.50;99.90;;;;;;5158620;27;20457;-28
2020/12/04 04:04:05;;;;;;;17.83;14.27;;;3.50;99.90;;;;;;5159498;27;20550;-28
2020/12/04 04:06:32;;;;;;;20.47;14.60;;;3.50;99.90;;;;;;5148290;27;20488;-28
2020/12/04 04:09:00;;;;;;;21.00;16.70;;;3.50;99.90;;;;;;5140011;27;20549;-27
2020/12/04 04:11:27;;;;;;;16.30;13.93;;;3.60;99.90;;;;;;5138157;27;20430;-28
2020/12/04 04:13:55;;;;;;;17.47;14.17;;;3.50;99.90;;;;;;5152006;27;20437;-28
2020/12/04 04:16:22;;;;;;;18.07;13.60;;;3.50;99.90;;;;;;5159271;27;20449;-31
2020/12/04 04:18:50;;;;;;;19.50;14.33;;;3.60;99.90;;;;;;5157751;27;20468;-29
2020/12/04 04:21:17;;;;;;;18.50;14.90;;;3.60;99.90;;;;;;5159511;27;20460;-31
2020/12/04 04:23:45;;;;;;;15.13;13.37;;;3.70;99.90;;;;;;5158114;27;20475;-31
2020/12/04 04:26:12;;;;;;;20.27;15.13;;;3.80;99.90;;;;;;5158177;27;20544;-28
2020/12/04 04:28:40;;;;;;;21.80;15.43;;;3.70;99.90;;;;;;5156796;27;20505;-29
2020/12/04 04:31:08;;;;;;;16.17;13.83;;;3.70;99.90;;;;;;5154978;27;20485;-28
2020/12/04 04:33:35;;;;;;;19.20;14.43;;;3.70;99.90;;;;;;5157177;27;20480;-27
2020/12/04 04:36:02;;;;;;;24.30;15.67;;;3.70;99.90;;;;;;5157575;27;21013;-27
2020/12/04 04:38:30;;;;;;;17.63;14.53;;;3.70;99.90;;;;;;5157631;27;20457;-28
2020/12/04 04:40:58;;;;;;;27.10;15.07;;;3.70;99.90;;;;;;5156047;27;20440;-28
2020/12/04 04:43:25;;;;;;;19.97;15.30;;;3.60;99.90;;;;;;5157417;27;20441;-28
2020/12/04 04:45:53;;;;;;;20.83;16.43;;;3.50;99.90;;;;;;5156618;27;20854;-27
2020/12/04 04:48:24;;;;;;;258.50;118.93;;;3.50;99.90;;;;;;5155292;27;20556;-28
2020/12/04 04:50:53;;;;;;;29.50;19.03;;;3.50;99.90;;;;;;5157155;27;21085;-27
2020/12/04 04:53:21;;;;;;;404.57;183.63;;;3.40;99.90;;;;;;5157297;27;21110;-28
2020/12/04 04:55:51;;;;;;;45.37;28.70;;;3.40;99.90;;;;;;5156383;27;20433;-27
2020/12/04 04:58:18;;;;;;;58.03;36.23;;;3.40;99.90;;;;;;5156233;27;20441;-28
2020/12/04 05:00:44;;;;;;;32.47;20.87;;;3.50;99.90;;;;;;5156108;27;20800;-27
2020/12/04 05:03:11;;;;;;;35.83;24.30;;;3.40;99.90;;;;;;5155825;27;20486;-28
2020/12/04 05:05:43;;;;;;;34.50;24.00;;;3.40;99.90;;;;;;5156654;27;20456;-28
2020/12/04 05:08:11;;;;;;;32.17;23.57;;;3.40;99.90;;;;;;5136190;27;20438;-27
2020/12/04 05:10:37;;;;;;;27.70;20.37;;;3.50;99.90;;;;;;5134073;27;20477;-28
2020/12/04 05:13:05;;;;;;;31.47;20.47;;;3.50;99.90;;;;;;5136163;27;20434;-27
2020/12/04 05:15:32;;;;;;;21.83;16.70;;;3.50;99.90;;;;;;5134488;27;20453;-27
2020/12/04 05:18:06;;;;;;;20.73;15.93;;;3.50;99.90;;;;;;5135011;27;20487;-27
2020/12/04 05:20:34;;;;;;;21.13;15.53;;;3.60;99.90;;;;;;5154876;27;20465;-28
2020/12/04 05:23:01;;;;;;;18.30;14.33;;;3.60;99.90;;;;;;5155075;27;20480;-27
2020/12/04 05:25:33;;;;;;;18.77;14.83;;;3.60;99.90;;;;;;5153241;27;20506;-29
2020/12/04 05:28:11;;;;;;;18.70;14.80;;;3.70;99.90;;;;;;5152514;27;20441;-28
2020/12/04 05:30:40;;;;;;;17.17;14.27;;;3.70;99.90;;;;;;5152481;27;20583;-26
2020/12/04 05:33:08;;;;;;;20.87;15.57;;;3.80;99.90;;;;;;5151970;27;20437;-28
2020/12/04 05:35:35;;;;;;;20.77;13.90;;;3.90;99.90;;;;;;5152351;27;20441;-27
2020/12/04 05:38:07;;;;;;;17.87;15.97;;;3.90;99.90;;;;;;5153130;27;20465;-27
2020/12/04 05:40:34;;;;;;;19.23;15.20;;;3.80;99.90;;;;;;5151303;27;20506;-29
2020/12/04 05:43:02;;;;;;;20.17;13.50;;;3.70;99.90;;;;;;5133969;27;21060;-29
2020/12/04 05:45:29;;;;;;;23.53;17.23;;;3.70;99.90;;;;;;5151648;27;20465;-28
2020/12/04 05:47:56;;;;;;;20.50;15.20;;;3.60;99.90;;;;;;5150956;27;20544;-29
2020/12/04 05:50:23;;;;;;;20.10;14.60;;;3.50;99.90;;;;;;5149648;27;20437;-28
2020/12/04 05:52:50;;;;;;;22.17;17.07;;;3.60;99.90;;;;;;5150249;27;20472;-29
2020/12/04 05:55:17;;;;;;;19.23;15.37;;;3.60;99.90;;;;;;5150404;27;20746;-28
2020/12/04 05:57:46;;;;;;;18.73;14.43;;;3.70;99.90;;;;;;5146920;27;20430;-27
2020/12/04 06:00:15;;;;;;;17.50;15.03;;;3.70;99.90;;;;;;5128973;27;20550;-28
2020/12/04 06:02:42;;;;;;;20.90;15.20;;;3.70;99.90;;;;;;5126281;27;20438;-28
2020/12/04 06:05:11;;;;;;;21.63;16.33;;;3.80;99.90;;;;;;5127111;27;20499;-27
2020/12/04 06:07:39;;;;;;;18.70;15.13;;;3.70;99.90;;;;;;5125556;27;20436;-27
2020/12/04 06:10:06;;;;;;;18.13;14.30;;;3.70;99.90;;;;;;5144851;27;20445;-28
2020/12/04 06:12:34;;;;;;;18.90;14.67;;;3.80;99.90;;;;;;5146831;27;20535;-28
2020/12/04 06:15:23;;;;;;;18.77;15.57;;;3.90;99.90;;;;;;5148401;27;20437;-28
2020/12/04 06:17:51;;;;;;;20.70;15.47;;;3.80;99.90;;;;;;5146466;27;20739;-29
2020/12/04 06:20:20;;;;;;;21.90;16.57;;;3.80;99.90;;;;;;5143524;27;21066;-28
2020/12/04 06:23:09;;;;;;;18.20;14.90;;;3.90;99.90;;;;;;5144812;27;21219;-28
2020/12/04 06:26:10;;;;;;;18.50;14.10;;;3.80;99.90;;;;;;5140182;27;21052;-27
2020/12/04 06:28:39;;;;;;;25.17;16.50;;;3.70;99.90;;;;;;5119760;27;20976;-28
2020/12/04 06:31:10;;;;;;;24.30;16.30;;;3.80;99.90;;;;;;5117237;27;21104;-28
2020/12/04 06:33:47;;;;;;;16.30;13.70;;;3.80;99.90;;;;;;5118933;27;20534;-29
2020/12/04 06:36:35;;;;;;;19.07;14.90;;;3.90;99.90;;;;;;5119050;27;20444;-27
2020/12/04 06:39:03;;;;;;;20.20;14.63;;;3.90;99.90;;;;;;5115835;27;20841;-27
2020/12/04 06:41:33;;;;;;;20.70;15.10;;;3.90;99.90;;;;;;5118462;27;20434;-28
2020/12/04 06:44:01;;;;;;;18.80;15.10;;;4.00;99.90;;;;;;5116014;27;20537;-27
2020/12/04 06:46:49;;;;;;;23.73;15.90;;;4.00;99.90;;;;;;5114696;27;20457;-28
2020/12/04 06:52:13;;;;;;;18.57;14.97;;;3.80;99.90;;;;;;5108845;27;20610;-28
2020/12/04 06:54:41;;;;;;;23.20;17.20;;;3.90;99.90;;;;;;5113599;27;20490;-28
2020/12/04 06:57:08;;;;;;;21.07;15.60;;;3.70;99.90;;;;;;5109919;27;20434;-28
2020/12/04 06:59:36;;;;;;;20.17;15.93;;;3.60;99.90;;;;;;5113771;27;20470;-28
2020/12/04 07:02:09;;;;;;;18.80;15.23;;;3.70;99.90;;;;;;5111495;27;20445;-28
2020/12/04 07:04:38;;;;;;;18.70;15.57;;;3.80;99.90;;;;;;5116257;27;20465;-28
2020/12/04 07:07:08;;;;;;;20.13;15.73;;;3.80;99.90;;;;;;5110244;27;20555;-27
2020/12/04 07:09:35;;;;;;;18.93;16.00;;;3.80;99.90;;;;;;5131855;27;20468;-29
2020/12/04 07:12:03;;;;;;;20.87;15.70;;;3.70;99.90;;;;;;5112086;27;20449;-28
2020/12/04 07:14:30;;;;;;;21.03;15.33;;;3.80;99.90;;;;;;5109962;27;21109;-27
2020/12/04 07:16:57;;;;;;;21.87;15.93;;;3.80;99.90;;;;;;5090291;28;20963;-27
2020/12/04 07:19:24;;;;;;;20.07;15.03;;;3.90;99.90;;;;;;5107636;28;20554;-28
2020/12/04 07:21:52;;;;;;;24.03;17.70;;;3.90;99.90;;;;;;5107559;28;20584;-27
2020/12/04 07:24:19;;;;;;;24.90;17.20;;;4.00;99.90;;;;;;5108148;28;20633;-28
2020/12/04 07:26:51;;;;;;;20.10;15.80;;;4.10;99.90;;;;;;5108989;28;20475;-27
2020/12/04 07:29:18;;;;;;;23.17;16.80;;;4.10;99.90;;;;;;5116289;27;20498;-29
2020/12/04 07:31:47;;;;;;;21.63;15.90;;;4.20;99.90;;;;;;5127969;27;20484;-28
2020/12/04 07:34:17;;;;;;;18.70;14.70;;;4.30;99.90;;;;;;5129075;27;20908;-27
2020/12/04 07:36:53;;;;;;;20.80;15.73;;;4.40;99.90;;;;;;5129852;27;20501;-27
2020/12/04 07:39:25;;;;;;;23.27;17.20;;;4.40;99.90;;;;;;5127441;27;20460;-28
2020/12/04 07:41:52;;;;;;;21.33;16.97;;;4.20;99.90;;;;;;5122789;27;20511;-28
2020/12/04 07:44:26;;;;;;;19.40;15.07;;;4.10;99.90;;;;;;5124517;27;20437;-27
2020/12/04 07:46:59;;;;;;;23.13;16.60;;;4.10;99.90;;;;;;5123265;27;21123;-28
2020/12/04 07:49:27;;;;;;;19.17;15.40;;;4.00;99.90;;;;;;5126632;27;20448;-28
2020/12/04 07:52:07;;;;;;;19.20;15.63;;;4.00;99.90;;;;;;5124636;27;20441;-27
2020/12/04 07:54:34;;;;;;;19.77;14.87;;;4.10;99.90;;;;;;5124242;27;20492;-27
2020/12/04 07:57:02;;;;;;;22.00;16.17;;;4.10;99.90;;;;;;5128252;27;20449;-29
2020/12/04 07:59:30;;;;;;;17.83;15.57;;;4.10;99.90;;;;;;5122104;27;20470;-28
2020/12/04 08:01:59;;;;;;;23.77;16.90;;;4.00;99.90;;;;;;5101815;27;20450;-28
2020/12/04 08:04:27;;;;;;;21.80;16.20;;;4.00;99.90;;;;;;5104690;28;20964;-28
2020/12/04 08:07:06;;;;;;;20.67;15.47;;;4.20;99.90;;;;;;5102526;28;21565;-28
2020/12/04 08:09:38;;;;;;;19.90;17.70;;;4.30;99.90;;;;;;5106164;28;20568;-27
2020/12/04 08:12:13;;;;;;;26.30;16.50;;;4.40;99.90;;;;;;5104788;28;20499;-27
2020/12/04 08:14:47;;;;;;;23.70;16.40;;;4.50;99.90;;;;;;5106496;28;20744;-27
2020/12/04 08:17:19;;;;;;;19.17;15.27;;;4.50;99.90;;;;;;5112144;27;20776;-27
2020/12/04 08:19:46;;;;;;;20.07;16.67;;;4.70;99.90;;;;;;5122107;27;20465;-28
2020/12/04 08:22:14;;;;;;;21.60;17.53;;;4.90;99.90;;;;;;5127992;27;20849;-27
2020/12/04 08:24:50;;;;;;;22.53;16.53;;;5.00;99.90;;;;;;5128439;27;20457;-27
2020/12/04 08:27:17;;;;;;;21.53;16.13;;;5.10;99.90;;;;;;5122672;27;20513;-29
2020/12/04 08:30:00;;;;;;;23.20;15.53;;;5.20;99.90;;;;;;5106218;27;20438;-27
2020/12/04 08:32:28;;;;;;;22.80;14.97;;;5.20;99.90;;;;;;5101730;27;20469;-28
2020/12/04 08:35:11;;;;;;;20.07;15.73;;;5.20;99.90;;;;;;5099802;27;20440;-28
2020/12/04 08:37:41;;;;;;;21.70;16.40;;;5.20;99.90;;;;;;5101916;27;20445;-30
2020/12/04 08:40:23;;;;;;;21.30;17.70;;;5.10;99.90;;;;;;5107522;27;20720;-27
2020/12/04 08:42:51;;;;;;;18.93;14.93;;;5.10;99.90;;;;;;5106619;27;20445;-27
2020/12/04 08:45:25;;;;;;;18.50;14.97;;;5.10;99.90;;;;;;5102481;27;20442;-27
2020/12/04 08:47:51;;;;;;;17.50;14.90;;;5.10;99.90;;;;;;5105532;27;20448;-28
2020/12/04 08:50:20;;;;;;;23.93;16.30;;;5.20;99.90;;;;;;5125126;27;20445;-26
2020/12/04 08:52:51;;;;;;;20.40;16.10;;;5.30;99.90;;;;;;5124600;27;20432;-28
2020/12/04 08:55:20;;;;;;;24.07;16.53;;;5.40;99.90;;;;;;5126486;27;20442;-27
2020/12/04 08:57:48;;;;;;;22.80;17.63;;;5.50;99.90;;;;;;5126457;27;20639;-29
2020/12/04 09:00:16;;;;;;;21.13;16.63;;;5.60;99.90;;;;;;5122852;27;20469;-29
2020/12/04 09:02:44;;;;;;;21.70;16.80;;;5.60;99.90;;;;;;5119293;27;20498;-29
2020/12/04 09:05:12;;;;;;;22.40;16.23;;;5.70;99.90;;;;;;5114646;27;20785;-28
2020/12/04 09:07:41;;;;;;;21.33;17.43;;;5.70;99.90;;;;;;5081557;27;20781;-29
2020/12/04 09:10:11;;;;;;;24.50;18.17;;;5.50;99.90;;;;;;5082440;27;20446;-30
2020/12/04 09:12:39;;;;;;;23.13;17.97;;;5.60;99.90;;;;;;5095370;27;20609;-28
2020/12/04 09:15:07;;;;;;;22.53;18.63;;;5.80;99.90;;;;;;5129588;27;20503;-29
2020/12/04 09:17:35;;;;;;;23.27;17.97;;;6.00;99.90;;;;;;5117942;27;20760;-28
2020/12/04 09:20:01;;;;;;;15.97;14.27;;;6.10;99.90;;;;;;5102054;27;20608;-28
2020/12/04 09:22:28;;;;;;;18.17;15.47;;;6.10;99.90;;;;;;5106121;27;20459;-29
2020/12/04 09:24:55;;;;;;;18.07;14.60;;;6.10;99.90;;;;;;5106730;27;20448;-28
2020/12/04 09:27:22;;;;;;;20.00;15.50;;;6.20;99.90;;;;;;5104341;27;20434;-29
2020/12/04 09:29:49;;;;;;;21.00;15.27;;;6.10;99.90;;;;;;5111019;27;21129;-28
2020/12/04 09:32:17;;;;;;;20.37;15.20;;;6.10;99.90;;;;;;5123828;27;20560;-28
2020/12/04 09:34:46;;;;;;;18.10;15.30;;;6.20;99.90;;;;;;5122807;27;20514;-28
2020/12/04 09:37:18;;;;;;;21.23;15.90;;;6.10;99.90;;;;;;5124553;27;20445;-29
2020/12/04 09:39:46;;;;;;;17.77;14.43;;;5.80;99.90;;;;;;5123901;27;20470;-29
2020/12/04 09:42:14;;;;;;;15.53;14.03;;;5.80;99.90;;;;;;5123390;27;20433;-29
2020/12/04 09:44:43;;;;;;;19.50;17.27;;;6.00;99.90;;;;;;5124162;27;20468;-29
2020/12/04 09:47:11;;;;;;;21.37;17.00;;;6.40;99.90;;;;;;5126152;27;21402;-28
2020/12/04 09:49:38;;;;;;;17.93;15.17;;;6.70;99.90;;;;;;5112382;27;20877;-29
2020/12/04 09:52:05;;;;;;;20.77;16.27;;;6.90;99.90;;;;;;5081996;27;20880;-28
2020/12/04 09:54:36;;;;;;;18.20;14.37;;;6.90;99.90;;;;;;5097234;27;20437;-31
2020/12/04 09:57:05;;;;;;;20.03;15.30;;;6.90;99.90;;;;;;5102321;27;20425;-29
2020/12/04 09:59:32;;;;;;;22.20;17.47;;;7.00;99.90;;;;;;5097598;27;20476;-29
2020/12/04 10:02:01;;;;;;;21.40;16.10;;;7.10;99.90;;;;;;5108880;27;20455;-29
2020/12/04 10:04:28;;;;;;;16.43;14.63;;;7.30;99.90;;;;;;5114307;27;20452;-31
2020/12/04 10:06:55;;;;;;;18.23;16.30;;;7.40;99.90;;;;;;5119849;27;20916;-29
2020/12/04 10:09:23;;;;;;;18.43;15.43;;;7.40;99.90;;;;;;5113886;27;20449;-28
2020/12/04 10:11:50;;;;;;;18.33;15.60;;;7.50;99.90;;;;;;5105102;27;21166;-30
2020/12/04 10:14:18;;;;;;;20.60;15.80;;;7.60;99.90;;;;;;5101232;27;20434;-29
2020/12/04 10:16:47;;;;;;;17.73;15.83;;;7.60;99.90;;;;;;5095756;27;20461;-30
2020/12/04 10:19:17;;;;;;;17.00;15.13;;;7.60;99.90;;;;;;5103249;27;20458;-29
2020/12/04 10:21:45;;;;;;;15.80;14.07;;;7.60;99.90;;;;;;5101762;27;20434;-28
2020/12/04 10:24:13;;;;;;;19.07;14.27;;;7.60;99.90;;;;;;5105668;27;20767;-31
2020/12/04 10:26:41;;;;;;;20.70;16.53;;;7.60;99.90;;;;;;5097959;27;20467;-28
2020/12/04 10:29:08;;;;;;;31.27;22.30;;;7.60;99.90;;;;;;5101299;27;20438;-28
2020/12/04 10:31:36;;;;;;;17.97;16.07;;;7.70;99.90;;;;;;5099443;27;20488;-28
2020/12/04 10:34:03;;;;;;;18.03;15.60;;;7.50;99.90;;;;;;5098823;27;20871;-29
2020/12/04 10:36:31;;;;;;;16.57;14.80;;;7.40;99.90;;;;;;5099911;27;20484;-28
2020/12/04 10:38:58;;;;;;;17.00;15.20;;;7.20;99.90;;;;;;5104323;27;20458;-28
2020/12/04 10:41:25;;;;;;;19.97;17.17;;;7.00;99.90;;;;;;5104900;27;20435;-28
2020/12/04 10:43:51;;;;;;;20.00;15.23;;;6.90;99.90;;;;;;5104070;27;20445;-28
2020/12/04 10:46:18;;;;;;;19.80;15.93;;;6.80;99.90;;;;;;5104562;27;21231;-28
2020/12/04 10:48:46;;;;;;;19.40;15.67;;;6.70;99.90;;;;;;5106753;27;20448;-28
2020/12/04 10:51:13;;;;;;;17.60;15.00;;;6.70;99.90;;;;;;5123766;27;20425;-28
2020/12/04 10:53:40;;;;;;;21.77;15.70;;;6.80;99.90;;;;;;5124467;27;20460;-28
2020/12/04 10:56:08;;;;;;;22.47;16.83;;;6.90;99.90;;;;;;5123626;27;21106;-27
2020/12/04 10:58:35;;;;;;;16.87;15.10;;;6.90;99.90;;;;;;5105406;27;21259;-27
2020/12/04 11:01:04;;;;;;;26.47;19.47;;;7.00;99.90;;;;;;5101924;27;20769;-28
2020/12/04 11:03:39;;;;;;;33.63;20.53;;;7.00;99.90;;;;;;5105369;27;20449;-27
2020/12/04 11:06:06;;;;;;;22.30;15.77;;;7.00;99.90;;;;;;5103961;27;20437;-28
2020/12/04 11:08:32;;;;;;;24.73;16.90;;;6.80;99.90;;;;;;5102195;27;20462;-28
2020/12/04 11:11:00;;;;;;;20.90;18.10;;;6.70;99.90;;;;;;5105748;27;20665;-28
2020/12/04 11:13:27;;;;;;;20.60;16.10;;;6.60;99.90;;;;;;5121981;27;20928;-28
2020/12/04 11:15:53;;;;;;;20.30;17.30;;;6.40;99.90;;;;;;5125319;27;20777;-27
2020/12/04 11:18:20;;;;;;;24.37;20.83;;;6.20;99.90;;;;;;5124871;27;20445;-27
2020/12/04 11:20:47;;;;;;;21.00;16.83;;;6.30;99.90;;;;;;5124547;27;20483;-28
2020/12/04 11:23:14;;;;;;;20.87;17.00;;;6.40;99.90;;;;;;5112835;27;20446;-28
2020/12/04 11:25:42;;;;;;;21.67;16.80;;;6.40;99.90;;;;;;5124258;27;20449;-28
2020/12/04 11:28:10;;;;;;;20.27;16.27;;;6.40;99.90;;;;;;5117166;27;20463;-27
2020/12/04 11:30:37;;;;;;;20.20;17.63;;;6.60;99.90;;;;;;5103903;27;20646;-27
2020/12/04 11:33:04;;;;;;;21.43;15.90;;;6.60;99.90;;;;;;5101370;27;20573;-28
2020/12/04 11:35:48;;;;;;;23.50;16.70;;;6.60;99.90;;;;;;5102050;28;20462;-27
2020/12/04 11:38:15;;;;;;;20.77;17.50;;;6.60;99.90;;;;;;5104353;28;20438;-28
2020/12/04 11:40:49;;;;;;;22.90;16.13;;;6.60;99.90;;;;;;5105472;28;20469;-29
2020/12/04 11:43:17;;;;;;;22.03;17.03;;;6.60;99.90;;;;;;5108125;28;20449;-27
2020/12/04 11:45:44;;;;;;;17.70;14.63;;;6.80;99.90;;;;;;5106816;28;20845;-28
2020/12/04 11:48:11;;;;;;;20.03;15.87;;;6.80;99.90;;;;;;5101950;27;20442;-26
2020/12/04 11:50:38;;;;;;;17.43;15.20;;;6.90;99.90;;;;;;5103948;27;20506;-27
2020/12/04 11:53:04;;;;;;;19.00;16.07;;;6.90;99.90;;;;;;5104473;27;20453;-27
2020/12/04 11:55:42;;;;;;;25.27;15.07;;;6.80;99.90;;;;;;5105867;27;20442;-27
2020/12/04 12:01:17;;;;;;;21.03;16.47;;;7.00;99.90;;;;;;5115895;27;20477;-30
2020/12/04 12:03:44;;;;;;;24.53;16.00;;;7.00;99.90;;;;;;5108581;27;20494;-28
2020/12/04 12:06:11;;;;;;;21.57;17.00;;;7.00;99.90;;;;;;5112011;27;20583;-27
2020/12/04 12:08:37;;;;;;;23.20;16.27;;;7.00;99.90;;;;;;5110427;27;20445;-28
2020/12/04 12:11:04;;;;;;;21.17;15.40;;;6.80;99.90;;;;;;5109918;27;20822;-28
2020/12/04 12:13:32;;;;;;;20.70;16.23;;;6.50;99.90;;;;;;5107754;27;20474;-27
2020/12/04 12:15:58;;;;;;;22.17;15.10;;;6.50;99.90;;;;;;5116398;27;20598;-30
2020/12/04 12:18:25;;;;;;;20.67;16.57;;;6.50;99.90;;;;;;5116262;27;20570;-28
2020/12/04 12:20:52;;;;;;;20.70;15.73;;;6.60;99.90;;;;;;5113752;27;20467;-28
2020/12/04 12:23:18;;;;;;;25.33;18.40;;;6.60;99.90;;;;;;5115136;27;20431;-27
2020/12/04 12:25:45;;;;;;;21.93;17.23;;;6.60;99.90;;;;;;5116469;27;20522;-26
2020/12/04 12:28:11;;;;;;;19.93;15.90;;;6.70;99.90;;;;;;5117110;27;20434;-25
2020/12/04 12:30:39;;;;;;;19.50;16.37;;;6.70;99.90;;;;;;5114775;27;20528;-28
2020/12/04 12:33:05;;;;;;;21.73;16.57;;;6.70;99.90;;;;;;5118607;27;20534;-27
2020/12/04 12:35:32;;;;;;;22.67;17.20;;;6.70;99.90;;;;;;5113994;27;20560;-25
2020/12/04 12:37:59;;;;;;;21.93;17.37;;;6.60;99.90;;;;;;5118423;27;20449;-25
2020/12/04 12:40:26;;;;;;;21.13;16.37;;;6.60;99.90;;;;;;5116282;27;20465;-25
2020/12/04 12:42:53;;;;;;;21.77;16.00;;;6.60;99.90;;;;;;5111297;27;20445;-26
2020/12/04 12:45:21;;;;;;;29.50;17.07;;;6.60;99.90;;;;;;5113832;27;20546;-25
2020/12/04 12:47:49;;;;;;;22.43;17.40;;;6.70;99.90;;;;;;5113472;27;20438;-25
2020/12/04 12:50:15;;;;;;;20.67;16.70;;;6.70;99.90;;;;;;5134070;27;20909;-28